createdAt,value
2023-02-11T00:00:16.993Z,2.70
2023-02-11T00:02:46.066Z,2.70
2023-02-11T00:05:14.207Z,2.80
2023-02-11T00:07:40.889Z,2.90
2023-02-11T00:10:08.003Z,2.80
2023-02-11T00:12:35.723Z,2.80
2023-02-11T00:15:02.394Z,2.70
2023-02-11T00:17:29.398Z,2.70
2023-02-11T00:19:56.101Z,2.70
2023-02-11T00:22:22.904Z,2.60
2023-02-11T00:24:49.649Z,2.60
2023-02-11T00:27:16.413Z,2.60
2023-02-11T00:29:43.143Z,2.50
2023-02-11T00:32:09.925Z,2.50
2023-02-11T00:34:38.016Z,2.50
2023-02-11T00:37:04.882Z,2.50
2023-02-11T00:39:31.634Z,2.50
2023-02-11T00:41:58.494Z,2.50
2023-02-11T00:44:25.432Z,2.50
2023-02-11T00:46:52.230Z,2.50
2023-02-11T00:49:19.156Z,2.50
2023-02-11T00:51:47.965Z,2.50
2023-02-11T00:54:14.662Z,2.50
2023-02-11T00:56:41.401Z,2.50
2023-02-11T00:59:08.071Z,2.60
2023-02-11T01:01:35.436Z,2.60
2023-02-11T01:04:05.178Z,2.50
2023-02-11T01:06:31.894Z,2.50
2023-02-11T01:08:58.565Z,2.50
2023-02-11T01:11:25.293Z,2.50
2023-02-11T01:13:51.982Z,2.60
2023-02-11T01:16:18.934Z,2.50
2023-02-11T01:18:45.846Z,2.60
2023-02-11T01:21:12.610Z,2.60
2023-02-11T01:23:39.336Z,2.70
2023-02-11T01:26:07.405Z,2.70
2023-02-11T01:28:34.210Z,2.80
2023-02-11T01:31:01.645Z,2.90
2023-02-11T01:33:28.538Z,2.80
2023-02-11T01:35:55.367Z,2.90
2023-02-11T01:38:24.323Z,2.80
2023-02-11T01:40:54.653Z,2.80
2023-02-11T01:43:21.631Z,2.80
2023-02-11T01:45:48.904Z,2.80
2023-02-11T01:48:18.214Z,2.70
2023-02-11T01:50:44.984Z,2.70
2023-02-11T01:53:30.099Z,2.70
2023-02-11T01:56:15.022Z,2.80
2023-02-11T01:58:42.234Z,2.90
2023-02-11T02:01:09.091Z,2.90
2023-02-11T02:03:36.794Z,2.90
2023-02-11T02:06:10.996Z,2.80
2023-02-11T02:08:42.433Z,2.70
2023-02-11T02:11:09.346Z,2.70
2023-02-11T02:13:37.239Z,2.70
2023-02-11T02:16:10.720Z,2.70
2023-02-11T02:19:32.039Z,2.70
2023-02-11T02:22:35.079Z,2.70
2023-02-11T02:25:14.020Z,2.60
2023-02-11T02:27:55.394Z,2.60
2023-02-11T02:31:03.219Z,2.60
2023-02-11T02:33:34.167Z,2.60
2023-02-11T02:36:22.736Z,2.70
2023-02-11T02:39:04.785Z,2.70
2023-02-11T02:41:32.707Z,2.60
2023-02-11T02:43:59.489Z,2.60
2023-02-11T02:46:31.667Z,2.60
2023-02-11T02:48:58.578Z,2.50
2023-02-11T02:51:46.260Z,2.40
2023-02-11T02:54:24.932Z,2.40
2023-02-11T02:56:56.248Z,2.40
2023-02-11T02:59:36.204Z,2.40
2023-02-11T03:02:22.114Z,2.40
2023-02-11T03:04:56.664Z,2.40
2023-02-11T03:07:41.951Z,2.40
2023-02-11T03:10:25.572Z,2.40
2023-02-11T03:12:52.723Z,2.40
2023-02-11T03:15:19.613Z,2.40
2023-02-11T03:17:47.622Z,2.40
2023-02-11T03:20:26.249Z,2.40
2023-02-11T03:22:58.578Z,2.50
2023-02-11T03:25:42.779Z,2.50
2023-02-11T03:28:18.473Z,2.50
2023-02-11T03:31:04.317Z,2.50
2023-02-11T03:33:46.871Z,2.60
2023-02-11T03:36:17.612Z,2.60
2023-02-11T03:38:47.332Z,2.60
2023-02-11T03:41:14.091Z,2.60
2023-02-11T03:43:52.156Z,2.60
2023-02-11T03:46:21.195Z,2.70
2023-02-11T03:49:02.546Z,2.70
2023-02-11T03:51:29.290Z,2.70
2023-02-11T03:53:57.041Z,2.70
2023-02-11T03:56:25.309Z,2.70
2023-02-11T03:58:52.035Z,2.70
2023-02-11T04:01:18.853Z,2.70
2023-02-11T04:03:45.587Z,2.70
2023-02-11T04:06:12.401Z,2.70
2023-02-11T04:08:39.106Z,2.70
2023-02-11T04:11:05.860Z,2.70
2023-02-11T04:13:32.580Z,2.70
2023-02-11T04:15:59.364Z,2.70
2023-02-11T04:18:26.082Z,2.80
2023-02-11T04:20:52.790Z,2.80
2023-02-11T04:23:19.582Z,2.80
2023-02-11T04:25:46.558Z,2.80
2023-02-11T04:28:13.896Z,2.80
2023-02-11T04:30:40.607Z,2.70
2023-02-11T04:33:07.329Z,2.50
2023-02-11T04:35:34.072Z,2.50
2023-02-11T04:38:00.800Z,2.40
2023-02-11T04:40:27.589Z,2.40
2023-02-11T04:42:54.271Z,2.40
2023-02-11T04:45:21.196Z,2.50
2023-02-11T04:47:47.993Z,2.50
2023-02-11T04:50:14.751Z,2.40
2023-02-11T04:52:41.466Z,2.40
2023-02-11T04:55:08.324Z,2.40
2023-02-11T04:57:35.118Z,2.50
2023-02-11T05:00:01.798Z,2.40
2023-02-11T05:02:28.481Z,2.40
2023-02-11T05:04:55.158Z,2.30
2023-02-11T05:07:21.837Z,2.30
2023-02-11T05:09:48.517Z,2.20
2023-02-11T05:12:15.313Z,2.00
2023-02-11T05:14:42.044Z,1.90
2023-02-11T05:17:08.785Z,1.90
2023-02-11T05:19:35.452Z,1.80
2023-02-11T05:22:03.654Z,1.70
2023-02-11T05:24:32.052Z,1.70
2023-02-11T05:26:58.937Z,1.70
2023-02-11T05:29:25.667Z,1.60
2023-02-11T05:31:52.470Z,1.60
2023-02-11T05:34:19.204Z,1.50
2023-02-11T05:36:45.991Z,1.50
2023-02-11T05:39:12.675Z,1.40
2023-02-11T05:41:39.408Z,1.30
2023-02-11T05:44:06.066Z,1.30
2023-02-11T05:46:32.928Z,1.30
2023-02-11T05:48:59.648Z,1.20
2023-02-11T05:51:26.408Z,1.10
2023-02-11T05:53:53.497Z,1.10
2023-02-11T05:56:20.431Z,1.00
2023-02-11T05:58:47.097Z,1.00
2023-02-11T06:01:13.829Z,0.90
2023-02-11T06:03:40.621Z,0.80
2023-02-11T06:06:11.680Z,0.80
2023-02-11T06:08:39.378Z,0.80
2023-02-11T06:11:06.283Z,0.80
2023-02-11T06:13:33.021Z,0.80
2023-02-11T06:16:00.217Z,0.80
2023-02-11T06:18:26.950Z,0.80
2023-02-11T06:20:53.680Z,0.70
2023-02-11T06:23:20.387Z,0.70
2023-02-11T06:25:47.067Z,0.80
2023-02-11T06:28:13.767Z,0.70
2023-02-11T06:30:40.771Z,0.70
2023-02-11T06:33:10.049Z,0.70
2023-02-11T06:35:39.067Z,0.70
2023-02-11T06:38:05.707Z,0.70
2023-02-11T06:40:32.468Z,0.70
2023-02-11T06:42:59.227Z,0.70
2023-02-11T06:45:26.007Z,0.80
2023-02-11T06:47:53.037Z,0.90
2023-02-11T06:50:19.820Z,0.90
2023-02-11T06:52:46.709Z,1.00
2023-02-11T06:55:13.659Z,1.00
2023-02-11T06:57:40.387Z,1.10
2023-02-11T07:00:07.735Z,1.10
2023-02-11T07:02:34.713Z,1.20
2023-02-11T07:05:01.433Z,1.30
2023-02-11T07:07:28.143Z,1.30
2023-02-11T07:09:54.990Z,1.30
2023-02-11T07:12:21.768Z,1.30
2023-02-11T07:14:48.515Z,1.40
2023-02-11T07:17:15.236Z,1.40
2023-02-11T07:19:41.998Z,1.40
2023-02-11T07:22:08.702Z,1.40
2023-02-11T07:24:35.423Z,1.40
2023-02-11T07:27:02.165Z,1.50
2023-02-11T07:29:28.895Z,1.50
2023-02-11T07:31:55.637Z,1.60
2023-02-11T07:34:22.435Z,1.70
2023-02-11T07:36:49.598Z,1.70
2023-02-11T07:39:16.344Z,1.70
2023-02-11T07:41:44.383Z,1.70
2023-02-11T07:44:11.608Z,1.80
2023-02-11T07:46:42.804Z,1.80
2023-02-11T07:49:09.574Z,1.80
2023-02-11T07:51:36.371Z,1.80
2023-02-11T07:54:03.134Z,1.80
2023-02-11T07:56:30.272Z,1.80
2023-02-11T07:59:00.072Z,1.80
2023-02-11T08:01:28.182Z,1.80
2023-02-11T08:03:56.138Z,1.80
2023-02-11T08:06:26.089Z,1.90
2023-02-11T08:08:53.153Z,1.90
2023-02-11T08:11:27.236Z,1.90
2023-02-11T08:13:54.225Z,2.00
2023-02-11T08:16:25.053Z,2.00
2023-02-11T08:18:52.138Z,2.00
2023-02-11T08:21:19.077Z,2.00
2023-02-11T08:23:45.886Z,2.10
2023-02-11T08:26:17.722Z,2.10
2023-02-11T08:28:44.813Z,2.10
2023-02-11T08:31:13.709Z,2.10
2023-02-11T08:33:41.085Z,2.20
2023-02-11T08:36:09.191Z,2.20
2023-02-11T08:38:35.853Z,2.20
2023-02-11T08:41:02.694Z,2.30
2023-02-11T08:43:29.479Z,2.30
2023-02-11T08:45:56.204Z,2.40
2023-02-11T08:48:22.955Z,2.50
2023-02-11T08:50:49.616Z,2.50
2023-02-11T08:53:16.290Z,2.60
2023-02-11T08:55:49.695Z,2.60
2023-02-11T08:58:19.075Z,2.60
2023-02-11T09:00:46.154Z,2.60
2023-02-11T09:03:13.490Z,2.60
2023-02-11T09:05:48.124Z,2.70
2023-02-11T09:08:16.108Z,2.80
2023-02-11T09:10:43.033Z,2.90
2023-02-11T09:13:09.991Z,3.00
2023-02-11T09:15:36.783Z,3.00
2023-02-11T09:18:03.837Z,3.00
2023-02-11T09:20:34.208Z,3.00
2023-02-11T09:23:01.035Z,3.10
2023-02-11T09:25:27.773Z,3.10
2023-02-11T09:27:54.463Z,3.20
2023-02-11T09:30:21.182Z,3.20
2023-02-11T09:32:48.061Z,3.40
2023-02-11T09:35:15.049Z,3.30
2023-02-11T09:37:41.798Z,3.40
2023-02-11T09:40:09.697Z,3.40
2023-02-11T09:42:45.863Z,3.40
2023-02-11T09:45:28.840Z,3.50
2023-02-11T09:48:10.601Z,3.50
2023-02-11T09:50:40.098Z,3.60
2023-02-11T09:53:25.076Z,3.70
2023-02-11T09:55:55.727Z,3.70
2023-02-11T09:58:42.739Z,3.80
2023-02-11T10:01:37.578Z,3.80
2023-02-11T10:04:07.824Z,3.90
2023-02-11T10:06:43.624Z,3.90
2023-02-11T10:09:13.068Z,4.00
2023-02-11T10:11:51.117Z,4.10
2023-02-11T10:14:40.767Z,4.10
2023-02-11T10:17:19.009Z,4.20
2023-02-11T10:20:19.152Z,4.20
2023-02-11T10:22:49.344Z,4.10
2023-02-11T10:25:30.149Z,4.20
2023-02-11T10:27:58.119Z,4.30
2023-02-11T10:30:34.058Z,4.30
2023-02-11T10:33:42.489Z,4.30
2023-02-11T10:36:13.671Z,4.30
2023-02-11T10:38:40.409Z,4.40
2023-02-11T10:41:09.541Z,4.40
2023-02-11T10:43:36.304Z,4.40
2023-02-11T10:46:03.319Z,4.50
2023-02-11T10:48:51.533Z,4.60
2023-02-11T10:51:34.135Z,4.60
2023-02-11T10:54:03.941Z,4.70
2023-02-11T10:56:46.751Z,4.70
2023-02-11T10:59:34.530Z,4.70
2023-02-11T11:02:22.449Z,4.70
2023-02-11T11:04:59.585Z,4.80
2023-02-11T11:07:28.232Z,4.80
2023-02-11T11:10:04.845Z,4.80
2023-02-11T11:12:45.600Z,4.80
2023-02-11T11:15:28.311Z,4.90
2023-02-11T11:18:22.090Z,4.90
2023-02-11T11:21:00.118Z,4.90
2023-02-11T11:23:27.257Z,4.90
2023-02-11T11:26:11.625Z,5.00
2023-02-11T11:28:53.392Z,5.10
2023-02-11T11:31:23.150Z,5.20
2023-02-11T11:33:50.778Z,5.30
2023-02-11T11:36:21.108Z,5.40
2023-02-11T11:38:53.075Z,5.50
2023-02-11T11:41:32.859Z,5.50
2023-02-11T11:44:00.814Z,5.70
2023-02-11T11:46:30.354Z,5.80
2023-02-11T11:49:37.878Z,6.00
2023-02-11T11:52:09.990Z,6.00
2023-02-11T11:54:36.718Z,6.20
2023-02-11T11:57:10.436Z,6.20
2023-02-11T11:59:38.159Z,6.30
2023-02-11T12:02:32.783Z,6.20
2023-02-11T12:05:03.763Z,6.30
2023-02-11T12:07:54.446Z,6.20
2023-02-11T12:10:48.328Z,6.30
2023-02-11T12:13:30.463Z,6.30
2023-02-11T12:16:20.909Z,6.20
2023-02-11T12:19:00.568Z,6.10
2023-02-11T12:21:43.082Z,6.00
2023-02-11T12:24:47.786Z,6.00
2023-02-11T12:27:46.546Z,5.90
2023-02-11T12:30:29.247Z,5.90
2023-02-11T12:33:00.160Z,5.80
2023-02-11T12:35:51.558Z,5.80
2023-02-11T12:38:24.105Z,5.90
2023-02-11T12:41:10.213Z,5.80
2023-02-11T12:43:38.267Z,5.90
2023-02-11T12:46:40.309Z,5.90
2023-02-11T12:49:22.084Z,5.80
2023-02-11T12:52:10.811Z,5.80
2023-02-11T12:54:47.346Z,5.80
2023-02-11T12:57:19.938Z,5.70
2023-02-11T13:00:00.741Z,5.70
2023-02-11T13:02:46.700Z,5.70
2023-02-11T13:05:22.253Z,5.60
2023-02-11T13:07:48.905Z,5.60
2023-02-11T13:10:31.763Z,5.60
2023-02-11T13:13:17.410Z,5.60
2023-02-11T13:15:55.499Z,5.60
2023-02-11T13:18:30.733Z,5.60
2023-02-11T13:21:19.423Z,5.60
2023-02-11T13:24:09.811Z,5.60
2023-02-11T13:26:45.865Z,5.70
2023-02-11T13:29:34.028Z,5.60
2023-02-11T13:32:09.263Z,5.70
2023-02-11T13:34:42.087Z,5.60
2023-02-11T13:37:22.207Z,5.70
2023-02-11T13:40:01.683Z,5.70
2023-02-11T13:42:29.178Z,5.70
2023-02-11T13:44:55.924Z,5.80
2023-02-11T13:47:27.939Z,5.80
2023-02-11T13:49:54.691Z,5.80
2023-02-11T13:52:27.758Z,5.80
2023-02-11T13:54:55.742Z,5.90
2023-02-11T13:57:26.002Z,5.90
2023-02-11T13:59:57.205Z,5.90
2023-02-11T14:02:46.982Z,6.00
2023-02-11T14:05:48.124Z,6.00
2023-02-11T14:08:39.421Z,6.00
2023-02-11T14:11:33.373Z,6.10
2023-02-11T14:14:19.595Z,6.10
2023-02-11T14:16:58.726Z,6.10
2023-02-11T14:19:45.060Z,6.10
2023-02-11T14:22:31.677Z,6.10
2023-02-11T14:25:05.371Z,6.20
2023-02-11T14:27:44.400Z,6.20
2023-02-11T14:30:22.566Z,6.20
2023-02-11T14:33:10.322Z,6.10
2023-02-11T14:35:58.579Z,6.10
2023-02-11T14:38:49.668Z,6.10
2023-02-11T14:41:22.184Z,6.10
2023-02-11T14:43:53.808Z,6.10
2023-02-11T14:46:21.725Z,6.10
2023-02-11T14:48:50.226Z,6.10
2023-02-11T14:51:20.467Z,6.10
2023-02-11T14:53:49.054Z,6.00
2023-02-11T14:56:26.462Z,6.00
2023-02-11T14:58:54.296Z,6.00
2023-02-11T15:01:27.987Z,6.00
2023-02-11T15:03:56.546Z,6.00
2023-02-11T15:06:30.367Z,5.90
2023-02-11T15:09:07.977Z,6.00
2023-02-11T15:11:39.952Z,6.00
2023-02-11T15:14:27.154Z,5.90
2023-02-11T15:16:56.328Z,5.80
2023-02-11T15:19:34.526Z,5.80
2023-02-11T15:22:05.120Z,5.80
2023-02-11T15:24:32.366Z,5.80
2023-02-11T15:27:21.019Z,5.80
2023-02-11T15:29:50.446Z,5.80
2023-02-11T15:32:23.159Z,5.80
2023-02-11T15:34:54.075Z,5.80
2023-02-11T15:37:34.123Z,5.80
2023-02-11T15:40:10.415Z,5.80
2023-02-11T15:42:51.777Z,5.80
2023-02-11T15:45:28.940Z,5.80
2023-02-11T15:47:59.801Z,5.80
2023-02-11T15:50:29.118Z,5.80
2023-02-11T15:52:57.361Z,5.70
2023-02-11T15:55:24.523Z,5.70
2023-02-11T15:57:54.926Z,5.70
2023-02-11T16:00:22.888Z,5.70
2023-02-11T16:02:50.830Z,5.70
2023-02-11T16:05:27.498Z,5.70
2023-02-11T16:07:54.211Z,5.70
2023-02-11T16:10:26.950Z,5.70
2023-02-11T16:13:13.857Z,5.70
2023-02-11T16:15:46.012Z,5.70
2023-02-11T16:18:40.074Z,5.70
2023-02-11T16:21:13.267Z,5.70
2023-02-11T16:23:42.118Z,5.60
2023-02-11T16:26:19.887Z,5.60
2023-02-11T16:28:46.641Z,5.60
2023-02-11T16:31:13.853Z,5.60
2023-02-11T16:33:40.575Z,5.60
2023-02-11T16:36:12.704Z,5.50
2023-02-11T16:38:39.491Z,5.60
2023-02-11T16:41:06.447Z,5.50
2023-02-11T16:43:33.100Z,5.50
2023-02-11T16:45:59.806Z,5.50
2023-02-11T16:48:26.580Z,5.50
2023-02-11T16:50:54.849Z,5.60
2023-02-11T16:53:23.452Z,5.50
2023-02-11T16:55:51.156Z,5.50
2023-02-11T16:58:18.062Z,5.50
2023-02-11T17:00:45.497Z,5.50
2023-02-11T17:03:18.052Z,5.50
2023-02-11T17:05:54.984Z,5.50
2023-02-11T17:08:23.017Z,5.50
2023-02-11T17:10:50.211Z,5.50
2023-02-11T17:13:17.082Z,5.50
2023-02-11T17:15:43.748Z,5.50
2023-02-11T17:18:13.214Z,5.50
2023-02-11T17:20:40.371Z,5.60
2023-02-11T17:23:07.038Z,5.50
2023-02-11T17:25:33.876Z,5.50
2023-02-11T17:28:00.918Z,5.50
2023-02-11T17:30:27.942Z,5.50
2023-02-11T17:32:54.652Z,5.50
2023-02-11T17:35:21.414Z,5.50
2023-02-11T17:37:52.788Z,5.50
2023-02-11T17:40:35.127Z,5.50
2023-02-11T17:43:02.038Z,5.50
2023-02-11T17:45:28.940Z,5.50
2023-02-11T17:47:55.625Z,5.50
2023-02-11T17:50:22.358Z,5.50
2023-02-11T17:52:49.047Z,5.60
2023-02-11T17:55:17.143Z,5.60
2023-02-11T17:57:46.792Z,5.60
2023-02-11T18:00:16.169Z,5.60
2023-02-11T18:02:42.865Z,5.50
2023-02-11T18:05:10.053Z,5.50
2023-02-11T18:07:36.911Z,5.50
2023-02-11T18:10:06.497Z,5.50
2023-02-11T18:12:33.241Z,5.50
2023-02-11T18:14:59.909Z,5.50
2023-02-11T18:17:26.678Z,5.50
2023-02-11T18:19:56.996Z,5.50
2023-02-11T18:22:24.388Z,5.50
2023-02-11T18:24:52.470Z,5.60
2023-02-11T18:27:19.292Z,5.60
2023-02-11T18:29:45.991Z,5.60
2023-02-11T18:32:13.359Z,5.60
2023-02-11T18:34:41.171Z,5.60
2023-02-11T18:37:07.864Z,5.60
2023-02-11T18:39:34.638Z,5.60
2023-02-11T18:42:01.309Z,5.60
2023-02-11T18:44:28.180Z,5.60
2023-02-11T18:46:55.029Z,5.50
2023-02-11T18:49:21.703Z,5.50
2023-02-11T18:51:48.632Z,5.50
2023-02-11T18:54:15.358Z,5.40
2023-02-11T18:56:43.348Z,5.40
2023-02-11T18:59:10.048Z,5.40
2023-02-11T19:01:39.250Z,5.40
2023-02-11T19:04:06.109Z,5.40
2023-02-11T19:06:34.997Z,5.40
2023-02-11T19:09:04.192Z,5.40
2023-02-11T19:11:49.814Z,5.40
2023-02-11T19:14:21.017Z,5.40
2023-02-11T19:16:50.064Z,5.30
2023-02-11T19:19:17.349Z,5.30
2023-02-11T19:21:44.307Z,5.30
2023-02-11T19:24:11.284Z,5.30
2023-02-11T19:26:38.223Z,5.40
2023-02-11T19:29:05.695Z,5.30
2023-02-11T19:31:32.732Z,5.30
2023-02-11T19:34:00.137Z,5.30
2023-02-11T19:36:26.984Z,5.30
2023-02-11T19:38:53.869Z,5.30
2023-02-11T19:41:22.404Z,5.30
2023-02-11T19:43:53.042Z,5.30
2023-02-11T19:46:20.959Z,5.20
2023-02-11T19:48:48.117Z,5.20
2023-02-11T19:51:14.854Z,5.20
2023-02-11T19:53:41.870Z,5.20
2023-02-11T19:56:08.773Z,5.20
2023-02-11T19:58:36.085Z,5.20
2023-02-11T20:01:09.497Z,5.20
2023-02-11T20:03:36.399Z,5.20
2023-02-11T20:06:12.043Z,5.20
2023-02-11T20:08:38.852Z,5.20
2023-02-11T20:11:13.250Z,5.20
2023-02-11T20:13:40.274Z,5.20
2023-02-11T20:16:08.363Z,5.20
2023-02-11T20:18:35.758Z,5.20
2023-02-11T20:21:09.581Z,5.10
2023-02-11T20:23:38.101Z,5.10
2023-02-11T20:26:15.574Z,5.10
2023-02-11T20:28:42.451Z,5.10
2023-02-11T20:31:10.962Z,5.10
2023-02-11T20:33:37.828Z,5.10
2023-02-11T20:36:06.714Z,5.10
2023-02-11T20:38:33.491Z,5.10
2023-02-11T20:41:05.303Z,5.10
2023-02-11T20:43:32.134Z,5.10
2023-02-11T20:46:03.364Z,5.10
2023-02-11T20:48:30.787Z,5.00
2023-02-11T20:51:03.141Z,5.10
2023-02-11T20:53:29.817Z,5.00
2023-02-11T20:55:56.571Z,5.00
2023-02-11T20:58:23.492Z,5.00
2023-02-11T21:00:50.227Z,5.00
2023-02-11T21:03:16.969Z,5.00
2023-02-11T21:05:43.703Z,5.00
2023-02-11T21:08:10.435Z,5.00
2023-02-11T21:10:37.257Z,5.00
2023-02-11T21:13:04.003Z,5.00
2023-02-11T21:15:30.837Z,5.00
2023-02-11T21:17:57.488Z,5.00
2023-02-11T21:20:24.184Z,5.00
2023-02-11T21:22:50.876Z,5.10
2023-02-11T21:25:17.632Z,5.10
2023-02-11T21:27:44.299Z,5.10
2023-02-11T21:30:11.457Z,5.10
2023-02-11T21:32:38.201Z,5.10
2023-02-11T21:35:05.415Z,5.10
2023-02-11T21:37:32.226Z,5.10
2023-02-11T21:39:59.060Z,5.10
2023-02-11T21:42:25.820Z,5.00
2023-02-11T21:44:52.573Z,5.00
2023-02-11T21:47:19.337Z,5.00
2023-02-11T21:49:46.186Z,5.00
2023-02-11T21:52:12.926Z,5.00
2023-02-11T21:54:39.672Z,5.00
2023-02-11T21:57:06.444Z,5.00
2023-02-11T21:59:33.238Z,5.00
2023-02-11T22:01:59.991Z,5.00
2023-02-11T22:04:26.882Z,4.90
2023-02-11T22:07:01.166Z,5.00
2023-02-11T22:09:27.990Z,5.00
2023-02-11T22:11:54.811Z,5.00
2023-02-11T22:14:21.552Z,5.00
2023-02-11T22:16:48.431Z,5.00
2023-02-11T22:19:15.338Z,5.00
2023-02-11T22:21:43.577Z,5.00
2023-02-11T22:24:10.350Z,4.90
2023-02-11T22:26:37.385Z,4.90
2023-02-11T22:29:04.284Z,4.90
2023-02-11T22:31:32.329Z,4.90
2023-02-11T22:33:59.291Z,4.90
2023-02-11T22:36:27.857Z,5.00
2023-02-11T22:38:54.850Z,4.90
2023-02-11T22:41:21.787Z,4.90
2023-02-11T22:43:48.593Z,4.90
2023-02-11T22:46:18.956Z,4.90
2023-02-11T22:48:46.214Z,4.90
2023-02-11T22:51:14.927Z,4.90
2023-02-11T22:53:48.285Z,4.90
2023-02-11T22:56:27.535Z,4.90
2023-02-11T22:58:56.997Z,4.90
2023-02-11T23:01:23.795Z,4.90
2023-02-11T23:03:50.671Z,4.90
2023-02-11T23:06:17.529Z,4.90
2023-02-11T23:08:44.365Z,4.90
2023-02-11T23:11:31.102Z,4.90
2023-02-11T23:13:57.926Z,4.90
2023-02-11T23:16:26.474Z,4.90
2023-02-11T23:18:53.178Z,4.90
2023-02-11T23:21:21.717Z,4.90
2023-02-11T23:23:48.613Z,4.90
2023-02-11T23:26:17.086Z,4.90
2023-02-11T23:28:46.902Z,4.90
2023-02-11T23:31:17.396Z,4.90
2023-02-11T23:33:44.401Z,4.90
2023-02-11T23:36:11.301Z,5.00
2023-02-11T23:38:38.026Z,5.00
2023-02-11T23:41:05.030Z,5.00
2023-02-11T23:43:31.816Z,5.00
2023-02-11T23:45:59.020Z,5.00
2023-02-11T23:48:26.100Z,5.00
2023-02-11T23:50:52.823Z,5.00
2023-02-11T23:53:19.520Z,5.00
2023-02-11T23:55:46.487Z,5.00
2023-02-11T23:58:13.663Z,4.90
